Timeline UpdatesTrip UpdatesNews PostsPvt Posts♥♥Travel TipsAdmin PostsConv PostsFollowed PostsChat RequestsBlog PostsPNR Posts

Disclaimer
Search
 
 
Sat Nov 1, 2014 16:05:21 ISTHomeTrainsΣChainsAtlasPNRForumGalleryNewsFAQTripsMembersLoginFeedback
No Recent News for this Train
Other Trains in the News **new
Latest...
.
Thu Jul 24, 2014 (11:10PM)
⇐ Return Journey: Train# 19019

19020/Dehradun - Mumbai Bandra Terminus Express

Time-Table HAS CHANGED.
Sep 03 2014 (11:17AM)
Change Departure Station:
Change Arrival Station:
Post a Train Travel TipPost a Train Travel Tip **new
Post a Comment/Question/Picture/VideoPost a Comment/Question/Picture/Video
Pantry/Catering
✕ NO Pantry Car
✓ Catering Avbl
Loco/Rake Reversals
SRE/Saharanpur Junction (6); LRJ/Laksar Junction (4);
RSA - Rake Sharing
Rake/Coach Composition
LOCO-SLR-HCPV-GEN-GEN-AB1-S1-S2-S3-S4-S5-S6-S7-S8-S9-SLR
Loco
GZB WAP-7 NZM-BDTS. ddn to nzm tkd wdp 3a. By Er...
Read more...
Ankit Shotra Bhagat Entry# 595554
News    PNR    Forum    Time-Table    Availability    Fare Chart    Map    Arr/Dep History    Trips    Gallery    ΣChains    X/O    Timeline    
Travel Time: 13h 21m    30 halts    Distance: 615 km    Avg Speed: 46 km/hr
Type: Mail/Express
Zone: WR/Western
Departs @ 14:59 (Avg 13m late)
Platform# ???
SMTWTFS
Raoti/RTI 
Arrives @ 04:20 +1 night (Avg 3m early)
Platform# 1
SMTWTFS
Mumbai Bandra Terminus/BDTS 

30 halts. 108 intermediate Stations between Raoti and Mumbai Bandra Terminus

Show ALL intermediate Stations  Show Old Time-Table

#TrkCodeStation NameX/OArrivesAvgDepartsAvgHaltPFDay#KmSpeedElevZoneAddress
1%--%DDNDehradun (4)  -10:35 10:30+321-1066.638648mNRDehradun, Uttarakhand
2%--%DWODoiwala  11:04 11:01+611:06 11:03+62m--1-1046.841484mNRDehradun, Uttarakhand
3%--%RWLRaiwala Junction (2)X  11:38 11:33+1211:40 11:35+192m21-1026.117361mNRRishikesh, Uttarakhand
4%--%MOTCMotichur (2)  12:00 11:58+1012:02 12:00+162m11-1019.518312mNRHaridwar, Uttarakhand
5|--|HWHaridwar Junction (9)X  12:15+1412:45+1530m31-1015.048294mNRHaridwar, Uttarakhand
6%--%JWPJwalapurX  12:53 12:50+2012:55 12:52+222m--1-1011.020292mNRHaridwar, Uttarakhand
7%--%LRJLaksar Junction (4)XO14:00+2314:25+1925m--1-988.053238mNRLaksar, Uttarakhand
8/==/RKRoorkee (3)X  14:43 14:45+1914:45 14:50+172 5m31-970.246264mNRRoorkee - 247667, Uttarakhand
9/==/SRESaharanpur Junction (6)X15:35+1716:05+830m41-935.548276mNRSaharanpur, Uttar Pradesh
10%--%DBDDeoband (2)  16:50 16:48+2016:52 16:50+212m21-901.344258mNRSaharanpur, Uttar Pradesh
11%--%MOZMuzaffarnagar (3)X  17:20 17:23+1717:22 17:25+292m21-877.363247mNRMuzaffarNagar, Uttar Pradesh
12%--%KATKhatauli (2)  17:42 17:46+3217:44 17:48+332m11-855.276239mNRKhatauli, Uttar Pradesh
13%--%MUTMeerut Cantt. (2)  18:08 18:11+3918:10 18:13+392m11-826.112230mNRMeerut, Uttar Pradesh
14%--%MTCMeerut City Junction (6)X18:35+2819:20+1245m41-821.773229mNRMeerut, Uttar Pradesh
15%==%MDNRModinagar (2)X  19:34 19:36+1819:36 19:38+182m21-802.355221mNRGhaziabad, Uttar Pradesh
16%==%MUDMuradnagar (2)X  19:45 19:49+1819:47 19:51+182m21-792.259220mNRGhaziabad, Uttar Pradesh
17%==%GZNNew Ghaziabad (2)XO  20:02 20:03+020:04 20:05+02m21-780.414213mNRGhaziabad, Uttar Pradesh
18%==%GZBGhaziabad Junction (6)XO  20:30 20:31+820:32 20:33+102m41-774.534217mNRGhaziabad, Uttar Pradesh
19/==/SBBSahibabad Junction (5)X  20:41 20:45+1620:43 20:46+162 1m--1-767.833209mNRGhaziabad, Uttar Pradesh
20/==/NZMDelhi Hazrat Nizamuddin (7)O21:15+1921:55+1740m11-751.825209mNRNew Delhi 110013, Delhi NCT
21/==/TKDTuglakabad (2)XO  22:18+1422:20+172m11-742.144213mNRNear Tughlakabad Metro Station, Delhi NCT
22/==/FDBFaridabad (4)O  22:44 22:35+1422:46 22:36+162 1m31-731.035206mNRold Faridabad, Haryana
23/==/BVHBallabgarh (5)XO  22:58 22:50+1423:00 22:52+142m--1-722.929203mNRFaridabad, Haryana
24/==/PWLPalwal (8)X  23:36+223:38+42m--1-701.785200mNRPalwal, Haryana
25/==/KSVKosi Kalan (3)O  00:08+1900:10+192m22-659.329189mNCRKosi Kalan, Uttar Pradesh
26/==/MTJMathura Junction (10)XO  01:35+101:45 01:40+510 5m32-617.861179mNCRMathura, Uttar Pradesh
27/==/BTEBharatpur Junction (5)  02:10 02:13+202:15+65 2m--2-584.384174mWCRBharatpur, Rajasthan
28/==/BXNBayana Junction (3)X  02:45+702:47+82m--2-542.370198mWCRBayana, Rajasthan
29/==/HANHindaun City (2)  03:15+1303:17+162m--2-509.456230mWCRKarauli, Rajasthan
30/==/SMBJShri Mahabirji (3)O  03:26 03:28+1503:28 03:30+152m--2-499.241240mWCRKarauli, Rajasthan
31/==/GGCGangapur City (3)  04:10 04:20+104:20 04:25+610 5m--2-465.163270mWCRGangapur, Rajasthan
32/==/MLZMalarnaX  04:50 04:57+704:52 04:59+82m--2-431.486236mWCRSawai Madhopur, Rajasthan
33/==/SWMSawai Madhopur Junction (4)X  05:20+1305:25+135m--2-401.278266mWCRSawai Madhopur, Rajasthan
34/==/IDGIndargarh Sumerganj Mandi (2)X  05:48 05:53+1305:50 05:55+162m--2-365.066247mWCRIndargarh, Rajasthan
35/==/LKELakheri (3)  05:58 06:05+1606:00 06:07+162m--2-354.069228mWCRBundi, Rajasthan
36/==/KPTNKeshorai PatanXO  06:38 06:48+1806:40 06:50+202m--2-306.953243mWCRSH 33, Rajasthan
37/==/GQLGurlaO  06:48 06:59+2106:50 07:00+232 1m--2-298.911251mWCRSH 33, Rajasthan
38|--|KOTAKota Junction (5)X07:30+1007:50+1520m22-293.533256mWCRKota, Rajasthan
39/==/DKNTDakaniya Talav (2)  08:01 08:07+1408:03 08:08+162 1m22-284.279278mWCRKota, Rajasthan
40/==/DARADara  08:30 08:37+1708:32 08:39+182m--2-246.163354mWCRDara, Rajasthan
41/==/MKXMorak (2)X  08:48 08:53+1808:50 08:55+192m--2-231.342337mWCRMorak, Rajasthan
42/==/RMARamganj Mandi Junction (3)  09:03 09:08+1609:05 09:10+202m--2-222.357358mWCRRamganj Mandi, Rajasthan
43/==/JHWJhalawar Road (3)  09:18 09:23+1909:20 09:25+202m--2-209.955361mWCRJhalawar City, Rajasthan
44/==/BWMBhawani Mandi (3)  09:38 09:43+1809:40 09:45+232m--2-193.476384mWCRBhawani Mandi, Madhya Pradesh
45/==/GOHGaroth (2)X  09:58 10:03+2410:00 10:05+242m12-170.828441mWCRMadhya Pradesh 458880, Madhya Pradesh
46/==/SGZShamgarh (3)X  10:25 10:28+1310:30+205 2m--2-159.967463mWCRMandsaur, Madhya Pradesh
47/==/SVASuwasra (2)  10:42+2110:44+232m--2-146.566450mWCRSuwasra, Madhya Pradesh
48/==/CMUChau Mahla (3)  10:58+2311:00+252m12-131.135426mWCRJhalawar, Rajasthan
49/==/THURThuriaX  11:24+1411:26+172m--2-117.021430mWCRMDR 45, Madhya Pradesh
50/==/VMAVikramgarh Alot (2)X  11:48+711:50+132m12-109.361443mWCRKota Division, Madhya Pradesh
51/==/LNRLuni Richha  12:03+1412:05+152m--2-96.028471mWCRAlote, Madhya Pradesh
52/==/MEPMahidpur Road  12:28+412:30+72m--2-85.429493mWCRGogapur, Madhya Pradesh
53/==/NADNagda Junction (4)  13:05+513:15+810m--2-68.464468mWRNagda, Madhya Pradesh
54/==/KUHKhachrod (2)  13:26 13:28+913:28 13:30+102m--2-54.657497mWRUjjain, Madhya Pradesh
55/==/RNHRunkheraX  13:39 13:41+913:41 13:42+102 1m--2-44.155478mWRUjjain, Madhya Pradesh
56/==/BODBangrodX  13:48 13:50+1113:50 13:51+112 1m--2-36.725484mWRRatlam, Madhya Pradesh
57/==/RTMRatlam Junction (7)X  14:15+714:35+920m42-26.970495mWRRatlam 457001, Madhya Pradesh
58/==/RTIRaoti (2)»  14:56 14:58+1314:58 14:59+132 1m--20.065409mWRState Highway 39A, Madhya Pradesh
59/==/BOGBhairongarh (2)  15:08 15:10+1315:10 15:11+132 1m--211.945374mWRBhairongarh Railway Station, Madhya Pradesh
60/==/BMIBamnia (2)  15:17 15:19+1415:19 15:21+142m--217.842392mWRBamnia, Madhya Pradesh
61/==/AGRAmargarh (2)  15:25 15:27+1415:27 15:28+142 1m--222.052410mWRSH 39A, Madhya Pradesh
62/==/PCNPanch Pipila (2)  15:37 15:39+1415:39 15:40+142 1m--231.576369mWRSH 39A, Madhya Pradesh
63/==/THDRThandla Road (2)X  15:49 15:51+1615:51 15:53+152m--245.460317mWRJhabua, Madhya Pradesh
64/==/MGNMeghnagar (3)  15:59 16:01+1616:01 16:03+152m--253.473317mWRJhabua, Madhya Pradesh
65/==/ANASAnas (2)  16:13 16:15+1716:15 16:16+172 1m--267.968288mWRMadhya Pradesh 389154 ?, Madhya Pradesh
66/==/BIOBordi (2)  16:21 16:23+1716:23 16:24+172 1m--275.958289mWRNational Highway 59, Gujarat
67/==/DHDDahod (3)X  16:35+2216:40 16:37+265 2m--286.564313mWRDahod, Gujarat
68/==/LMKLimkheda  17:06 17:08+2617:08 17:09+272 1m--2119.460205mWRLimkheda, Gujarat
69/==/PPDPiplod Junction  17:15 17:17+2717:17 17:19+262m--2127.479209mWRPiplod, Gujarat
70/==/SATSant Road (2)X  17:26 17:28+2617:28 17:30+252m22139.220169mWROrwara, Gujarat
71/==/GDAGodhra Junction (3)X  18:30+218:35+55m102159.654122mWRGodhra, Gujarat
72/==/KRSAKharsaliya (2)  18:45 18:47+718:47 18:48+82 1m--2170.576107mWRPanchmahal, Gujarat
73/==/DRLDerolX  18:56 18:58+918:58 19:00+82m12183.26881mWRKalol, Gujarat
74/==/CPNChampaner Road JunctionXO  19:09 19:11+819:11 19:13+82m--2195.77578mWRPanchmahal, Gujarat
75/==/SMLASamlaya Junction (3)X  19:20 19:22+819:22 19:24+82m--2206.95267mWRVadodara, Gujarat
76/==/BRCVadodara Junction (7)  19:55+1820:05+1810m32233.58136mWRVadodara 390005, Gujarat
77/==/MYGMiyagam Karjan (2)  20:25 20:27+2420:27 20:28+242 1m--2263.37029mWRKarjan, Gujarat
78/==/BHBharuch Junction (5)X  21:01 21:03+1821:03 21:05+182m42304.06219mWRBharuch, Gujarat
79/==/AKVAnkleshwar Junction (4)X  21:12 21:14+1521:14 21:16+152m22313.39319mWRAnkleshwar, Gujarat
80/==/KSBKosamba Junction (3)X21:29 21:28+2321:31 21:30+212m--2331.93130mWRKosamba, Gujarat
81/==/STSurat (4)X  22:30+522:38+68m22363.37419mWRSurat 395001, Gujarat
82/==/NVSNavsari (3)  23:03 23:02+1223:05+122 3m--2392.97914mWRNavsari, Gujarat
83/==/BIMBilimora Junction (4)X  23:21+1723:23+172m--2414.13611mWRBilimora, Gujarat
84/==/BLValsad (3)  23:53+1323:55+202m32432.03815mWRValsad, Gujarat
85/==/VAPIVapi (3)X  00:36+800:38+102m--3458.26827mWRVapi, Gujarat
86/==/PLGPalghar (3)X  02:04 01:50+2302:06 02:02+202 12m--3539.73519mWRPalghar, Maharashtra
87/==/VRVirar (8)  02:56+502:58+62m--3570.9536mWRDist. Palghar, Maharashtra
88/==/BVIMumbai Borivali (8)  03:30 03:27+403:32+42 5m53596.72319mWRMumbai - 400092, Maharashtra
89/==/BDTSMumbai Bandra Terminus (5)•  04:20-3-13615.4-4mWRMumbai 400050, Maharashtra
Scroll to Top
Scroll to Bottom